Quemado, Texas
Current Conditions -  °F | °C
As of 2:58 AM on Sunday 26 Oct 2014 (Local Time) from KDLF Reporting Station
Clear Clear  
Wind Chill: 63°   Ceiling: Unl
Heat Index: 63°   Visibility: 10mi
Dew Point: 57°   Wind: 6mph
Humidity: 82%   Direction: 120°ESE
Pressure: 30.05"   Gusts: NA
Location:  28.95°N, 100.62°W
Report Text: KDLF 260758Z AUTO 12005KT 10SM CLR 17/14 A3005 RMK AO2 SLP165 T01720141 $
Loading
Personal Weather Stations






























Interactive Weather Map
Tropical Storm Tracking
New forecast layout! Learn more

10-Day Weather Forecast

Advertisements
Track Severe Weather on mobile